createdAt,value
2019-03-20T00:11:40.647Z,18.27
2019-03-20T00:14:12.070Z,16.57
2019-03-20T00:16:43.518Z,17.60
2019-03-20T00:19:16.932Z,18.23
2019-03-20T00:21:49.594Z,18.37
2019-03-20T00:24:23.139Z,17.47
2019-03-20T00:26:55.432Z,17.43
2019-03-20T00:29:31.694Z,17.13
2019-03-20T00:32:04.496Z,17.40
2019-03-20T00:40:52.584Z,16.30
2019-03-20T00:43:24.074Z,17.83
2019-03-20T00:45:55.637Z,18.00
2019-03-20T00:48:27.040Z,17.33
2019-03-20T00:50:58.547Z,17.53
2019-03-20T00:53:29.980Z,17.13
2019-03-20T00:56:00.537Z,18.50
2019-03-20T00:58:32.118Z,17.10
2019-03-20T01:01:03.676Z,19.43
2019-03-20T01:03:35.229Z,17.40
2019-03-20T01:06:07.122Z,16.97
2019-03-20T01:08:39.686Z,16.13
2019-03-20T01:11:10.910Z,17.23
2019-03-20T01:13:41.861Z,18.67
2019-03-20T01:16:15.756Z,17.30
2019-03-20T01:18:56.349Z,17.37
2019-03-20T01:21:29.492Z,17.67
2019-03-20T01:24:01.692Z,16.87
2019-03-20T01:26:33.742Z,16.33
2019-03-20T01:29:05.231Z,17.00
2019-03-20T01:31:36.721Z,15.97
2019-03-20T01:34:08.065Z,15.97
2019-03-20T01:36:39.422Z,16.13
2019-03-20T01:39:10.843Z,16.03
2019-03-20T01:41:42.704Z,15.17
2019-03-20T01:44:14.278Z,13.83
2019-03-20T01:46:45.689Z,14.73
2019-03-20T01:49:17.134Z,15.37
2019-03-20T01:51:48.465Z,13.90
2019-03-20T01:54:20.044Z,14.77
2019-03-20T01:56:55.361Z,14.90
2019-03-20T01:59:26.742Z,12.70
2019-03-20T02:01:58.405Z,13.87
2019-03-20T02:04:31.659Z,13.13
2019-03-20T02:07:04.193Z,13.50
2019-03-20T02:09:37.240Z,14.50
2019-03-20T02:12:09.491Z,13.33
2019-03-20T02:14:43.608Z,13.23
2019-03-20T02:17:23.571Z,13.70
2019-03-20T02:19:56.840Z,14.20
2019-03-20T02:22:28.197Z,13.40
2019-03-20T02:24:59.767Z,12.87
2019-03-20T02:27:32.156Z,15.43
2019-03-20T02:33:06.647Z,14.30
2019-03-20T02:35:50.754Z,15.00
2019-03-20T02:38:12.387Z,16.87
2019-03-20T02:40:43.584Z,15.63
2019-03-20T02:43:14.961Z,14.87
2019-03-20T02:45:45.609Z,14.27
2019-03-20T02:48:16.674Z,15.10
2019-03-20T02:50:48.036Z,14.70
2019-03-20T02:53:20.561Z,14.30
2019-03-20T02:55:51.364Z,14.20
2019-03-20T02:58:22.636Z,14.30
2019-03-20T03:00:53.463Z,14.00
2019-03-20T03:03:24.601Z,13.93
2019-03-20T03:06:06.497Z,13.83
2019-03-20T03:08:28.877Z,14.60
2019-03-20T03:11:00.879Z,13.00
2019-03-20T03:13:34.922Z,15.50
2019-03-20T03:16:06.212Z,13.57
2019-03-20T03:18:38.983Z,13.20
2019-03-20T03:21:13.340Z,13.43
2019-03-20T03:23:48.464Z,13.43
2019-03-20T03:26:20.066Z,13.87
2019-03-20T03:28:56.389Z,12.73
2019-03-20T03:31:28.155Z,11.93
2019-03-20T03:34:05.054Z,12.33
2019-03-20T03:36:37.671Z,13.17
2019-03-20T03:39:09.580Z,13.13
2019-03-20T03:41:44.830Z,14.17
2019-03-20T03:44:16.208Z,13.83
2019-03-20T03:46:47.695Z,14.07
2019-03-20T03:49:19.392Z,14.37
2019-03-20T03:51:50.919Z,15.20
2019-03-20T03:54:22.652Z,15.37
2019-03-20T03:56:54.051Z,15.77
2019-03-20T03:59:25.543Z,14.50
2019-03-20T04:01:56.857Z,15.80
2019-03-20T04:04:28.514Z,16.27
2019-03-20T04:07:01.720Z,15.33
2019-03-20T04:09:34.221Z,18.00
2019-03-20T04:12:06.153Z,16.20
2019-03-20T04:14:37.551Z,16.43
2019-03-20T04:17:25.862Z,16.43
2019-03-20T04:19:57.130Z,15.43
2019-03-20T04:22:28.540Z,15.37
2019-03-20T04:24:59.911Z,15.30
2019-03-20T04:27:31.859Z,15.83
2019-03-20T04:30:03.443Z,15.93
2019-03-20T04:32:35.440Z,18.50
2019-03-20T04:35:07.245Z,19.33
2019-03-20T04:37:40.738Z,19.30
2019-03-20T04:40:12.178Z,18.83
2019-03-20T04:42:44.986Z,16.87
2019-03-20T04:45:18.347Z,17.30
2019-03-20T04:47:53.100Z,16.70
2019-03-20T04:50:30.329Z,17.10
2019-03-20T04:53:06.963Z,16.37
2019-03-20T04:55:39.286Z,17.80
2019-03-20T04:58:10.775Z,17.63
2019-03-20T05:00:41.493Z,17.23
2019-03-20T05:03:12.688Z,17.47
2019-03-20T05:05:44.222Z,17.03
2019-03-20T05:08:15.746Z,16.33
2019-03-20T05:10:47.160Z,16.83
2019-03-20T05:13:18.743Z,16.93
2019-03-20T05:15:50.622Z,16.60
2019-03-20T05:18:22.509Z,17.80
2019-03-20T05:20:53.764Z,16.40
2019-03-20T05:23:24.695Z,17.37
2019-03-20T05:25:55.458Z,16.03
2019-03-20T05:28:27.548Z,16.53
2019-03-20T05:30:58.153Z,16.33
2019-03-20T05:33:28.995Z,16.13
2019-03-20T05:36:00.385Z,16.83
2019-03-20T05:38:32.153Z,17.67
2019-03-20T05:41:05.477Z,18.60
2019-03-20T05:43:37.307Z,17.47
2019-03-20T05:46:10.011Z,19.13
2019-03-20T05:48:41.962Z,19.23
2019-03-20T05:51:12.726Z,19.73
2019-03-20T05:53:43.529Z,19.73
2019-03-20T05:56:15.086Z,19.87
2019-03-20T05:58:46.468Z,19.00
2019-03-20T06:01:17.284Z,19.67
2019-03-20T06:03:48.882Z,18.93
2019-03-20T06:06:20.361Z,20.27
2019-03-20T06:08:52.213Z,19.67
2019-03-20T06:11:23.583Z,21.27
2019-03-20T06:13:55.214Z,20.27
2019-03-20T06:16:26.624Z,23.90
2019-03-20T06:19:00.746Z,21.40
2019-03-20T06:21:33.618Z,22.10
2019-03-20T06:24:07.309Z,20.87
2019-03-20T06:26:41.331Z,19.83
2019-03-20T06:48:43.053Z,17.70
2019-03-20T06:51:14.600Z,17.10
2019-03-20T06:53:47.565Z,17.10
2019-03-20T06:56:19.154Z,16.90
2019-03-20T06:59:09.162Z,16.17
2019-03-20T07:01:40.432Z,15.60
2019-03-20T07:10:34.255Z,14.43
2019-03-20T07:13:05.743Z,12.60
2019-03-20T07:15:37.624Z,14.27
2019-03-20T07:18:09.045Z,12.60
2019-03-20T07:20:40.571Z,12.70
2019-03-20T07:23:12.048Z,12.30
2019-03-20T07:25:43.227Z,12.60
2019-03-20T07:28:14.779Z,13.33
2019-03-20T07:30:46.219Z,12.80
2019-03-20T07:33:26.129Z,12.40
2019-03-20T07:35:57.872Z,13.23
2019-03-20T07:38:29.426Z,12.83
2019-03-20T07:41:00.806Z,12.50
2019-03-20T07:43:32.743Z,12.63
2019-03-20T07:46:06.313Z,12.00
2019-03-20T07:48:37.738Z,12.10
2019-03-20T07:51:09.375Z,12.43
2019-03-20T07:53:40.869Z,11.13
2019-03-20T07:56:12.308Z,11.30
2019-03-20T07:58:44.150Z,11.47
2019-03-20T08:01:15.999Z,11.60
2019-03-20T08:03:47.464Z,10.90
2019-03-20T08:06:20.015Z,10.53
2019-03-20T08:08:51.561Z,10.13
2019-03-20T08:11:23.338Z,11.40
2019-03-20T08:13:55.915Z,9.67
2019-03-20T08:16:33.034Z,9.67
2019-03-20T08:19:05.699Z,9.07
2019-03-20T08:21:37.523Z,9.00
2019-03-20T08:24:09.123Z,9.13
2019-03-20T08:26:40.524Z,8.07
2019-03-20T08:29:19.472Z,7.28
2019-03-20T08:31:50.986Z,8.23
2019-03-20T08:34:22.407Z,6.83
2019-03-20T08:36:55.034Z,6.08
2019-03-20T08:39:26.422Z,6.28
2019-03-20T08:41:57.883Z,6.83
2019-03-20T08:44:34.813Z,7.40
2019-03-20T09:04:10.020Z,5.60
2019-03-20T09:06:41.874Z,5.95
2019-03-20T09:12:31.479Z,3.57
2019-03-20T09:15:04.365Z,3.80
2019-03-20T09:17:36.617Z,3.60
2019-03-20T09:20:08.984Z,4.75
2019-03-20T09:22:40.977Z,4.47
2019-03-20T09:25:16.288Z,3.25
2019-03-20T09:27:47.565Z,3.72
2019-03-20T09:30:20.348Z,4.10
2019-03-20T09:32:52.131Z,3.33
2019-03-20T09:35:23.559Z,3.05
2019-03-20T09:37:55.051Z,3.17
2019-03-20T09:40:26.745Z,2.87
2019-03-20T09:42:59.293Z,2.42
2019-03-20T09:45:31.046Z,2.47
2019-03-20T09:48:02.522Z,2.67
2019-03-20T09:50:34.493Z,2.87
2019-03-20T09:53:06.221Z,3.10
2019-03-20T09:55:37.767Z,2.67
2019-03-20T09:58:11.721Z,2.30
2019-03-20T10:00:42.637Z,2.05
2019-03-20T10:03:14.173Z,2.35
2019-03-20T10:05:46.109Z,1.90
2019-03-20T10:08:17.801Z,2.50
2019-03-20T10:10:49.299Z,2.08
2019-03-20T10:13:21.000Z,2.30
2019-03-20T10:15:52.349Z,2.10
2019-03-20T10:18:24.007Z,1.73
2019-03-20T10:20:55.670Z,2.10
2019-03-20T10:23:26.953Z,2.33
2019-03-20T10:25:58.600Z,2.35
2019-03-20T10:28:30.355Z,2.27
2019-03-20T10:31:02.017Z,2.10
2019-03-20T10:33:34.385Z,2.83
2019-03-20T10:36:07.125Z,2.47
2019-03-20T10:38:38.713Z,2.35
2019-03-20T10:41:10.199Z,2.97
2019-03-20T10:43:42.087Z,2.90
2019-03-20T10:46:13.642Z,2.85
2019-03-20T10:48:45.262Z,2.50
2019-03-20T10:51:16.765Z,2.62
2019-03-20T10:53:48.449Z,2.57
2019-03-20T10:56:19.894Z,2.67
2019-03-20T10:58:51.757Z,2.50
2019-03-20T11:01:23.100Z,3.10
2019-03-20T11:03:54.539Z,2.60
2019-03-20T11:06:26.119Z,2.60
2019-03-20T11:08:58.700Z,2.43
2019-03-20T11:11:30.201Z,2.70
2019-03-20T11:14:01.646Z,2.60
2019-03-20T11:16:33.402Z,2.50
2019-03-20T11:19:05.113Z,3.20
2019-03-20T11:21:36.632Z,2.50
2019-03-20T11:24:08.012Z,2.65
2019-03-20T11:26:39.656Z,2.40
2019-03-20T11:29:11.206Z,2.37
2019-03-20T11:31:42.888Z,2.75
2019-03-20T11:34:14.348Z,2.27
2019-03-20T11:36:45.957Z,1.92
2019-03-20T11:39:28.971Z,2.10
2019-03-20T11:41:50.525Z,2.17
2019-03-20T11:47:28.010Z,2.10
2019-03-20T11:49:59.341Z,2.67
2019-03-20T11:52:31.086Z,2.77
2019-03-20T11:55:02.504Z,2.70
2019-03-20T11:57:35.221Z,3.80
2019-03-20T12:00:07.844Z,3.30
2019-03-20T12:02:40.188Z,3.43
2019-03-20T12:05:11.974Z,3.57
2019-03-20T12:07:43.283Z,5.17
2019-03-20T12:10:20.944Z,4.60
2019-03-20T12:12:52.361Z,4.60
2019-03-20T12:15:23.783Z,3.73
2019-03-20T12:17:55.298Z,4.07
2019-03-20T12:20:27.612Z,4.77
2019-03-20T13:32:40.778Z,3.50
2019-03-20T13:35:14.363Z,3.30
2019-03-20T13:37:46.812Z,3.03
2019-03-20T13:40:18.341Z,3.60
2019-03-20T13:42:49.915Z,3.03
2019-03-20T13:45:21.496Z,3.43
2019-03-20T13:47:53.049Z,3.00
2019-03-20T13:50:24.473Z,3.20
2019-03-20T13:52:57.631Z,3.10
2019-03-20T13:55:29.013Z,3.23
2019-03-20T13:58:00.417Z,3.17
2019-03-20T14:00:31.820Z,2.77
2019-03-20T14:03:03.416Z,3.40
2019-03-20T14:05:34.836Z,3.40
2019-03-20T14:08:06.396Z,3.23
2019-03-20T14:10:49.314Z,3.70
2019-03-20T14:13:11.785Z,3.20
2019-03-20T14:15:43.295Z,3.40
2019-03-20T14:18:14.795Z,2.60
2019-03-20T14:20:46.228Z,2.83
2019-03-20T14:23:17.958Z,2.40
2019-03-20T14:25:50.543Z,2.80
2019-03-20T14:28:21.989Z,2.70
2019-03-20T14:30:53.484Z,2.50
2019-03-20T14:33:27.719Z,2.40
2019-03-20T14:35:59.002Z,2.67
2019-03-20T14:38:30.569Z,2.47
2019-03-20T14:41:01.954Z,2.77
2019-03-20T14:43:33.918Z,2.60
2019-03-20T14:46:05.216Z,2.40
2019-03-20T14:48:38.038Z,2.70
2019-03-20T14:51:09.391Z,3.00
2019-03-20T14:53:42.287Z,3.63
2019-03-20T14:56:13.690Z,2.93
2019-03-20T14:58:51.234Z,3.07
2019-03-20T15:01:24.388Z,2.97
2019-03-20T15:03:56.133Z,3.43
2019-03-20T15:06:27.358Z,3.20
2019-03-20T15:09:04.198Z,3.73
2019-03-20T15:11:37.693Z,3.73
2019-03-20T15:14:14.547Z,3.03
2019-03-20T15:16:47.558Z,2.47
2019-03-20T15:19:19.034Z,3.07
2019-03-20T15:21:51.125Z,2.70
2019-03-20T15:24:23.119Z,2.80
2019-03-20T15:26:54.927Z,2.97
2019-03-20T15:29:30.146Z,3.13
2019-03-20T15:32:01.747Z,2.67
2019-03-20T15:34:34.897Z,3.23
2019-03-20T15:37:13.236Z,2.63
2019-03-20T15:39:44.936Z,2.93
2019-03-20T15:42:18.518Z,2.57
2019-03-20T15:44:50.836Z,2.60
2019-03-20T15:47:24.005Z,3.30
2019-03-20T15:50:26.755Z,3.20
2019-03-20T15:53:02.624Z,3.70
2019-03-20T15:55:37.422Z,3.53
2019-03-20T15:58:14.177Z,3.20
2019-03-20T16:11:49.968Z,3.67
2019-03-20T16:14:28.370Z,4.00
2019-03-20T16:17:00.479Z,3.67
2019-03-20T16:19:33.102Z,3.90
2019-03-20T16:22:04.416Z,4.23
2019-03-20T16:24:35.823Z,3.97
2019-03-20T16:27:07.255Z,4.03
2019-03-20T16:29:38.600Z,4.33
2019-03-20T16:32:10.725Z,5.97
2019-03-20T16:34:43.875Z,5.57
2019-03-20T16:37:15.325Z,5.93
2019-03-20T16:39:46.800Z,5.43
2019-03-20T16:42:18.250Z,7.10
2019-03-20T16:44:49.693Z,6.13
2019-03-20T16:47:21.067Z,5.97
2019-03-20T16:49:52.336Z,5.97
2019-03-20T16:52:23.921Z,6.03
2019-03-20T16:54:55.388Z,5.70
2019-03-20T16:57:27.012Z,6.07
2019-03-20T17:00:00.157Z,5.17
2019-03-20T17:02:34.549Z,5.03
2019-03-20T17:05:06.667Z,4.93
2019-03-20T17:07:37.945Z,4.97
2019-03-20T17:10:13.016Z,5.60
2019-03-20T17:12:45.045Z,4.60
2019-03-20T17:15:18.914Z,5.10
2019-03-20T17:17:50.357Z,5.33
2019-03-20T17:20:21.747Z,4.80
2019-03-20T17:22:54.661Z,4.50
2019-03-20T17:25:26.110Z,5.37
2019-03-20T17:27:58.286Z,5.33
2019-03-20T17:30:32.192Z,5.50
2019-03-20T17:33:04.093Z,4.77
2019-03-20T17:35:37.536Z,4.60
2019-03-20T17:38:09.836Z,5.03
2019-03-20T17:40:44.247Z,5.07
2019-03-20T17:43:17.779Z,5.20
2019-03-20T17:45:52.651Z,7.93
2019-03-20T17:48:24.803Z,7.50
2019-03-20T17:50:56.246Z,7.43
2019-03-20T17:53:30.524Z,8.87
2019-03-20T17:56:02.851Z,10.27
2019-03-20T17:58:36.537Z,12.73
2019-03-20T18:01:11.097Z,10.40
2019-03-20T18:03:46.190Z,11.87
2019-03-20T18:06:18.941Z,14.00
2019-03-20T18:08:50.998Z,13.43
2019-03-20T18:11:22.458Z,16.03
2019-03-20T18:13:54.431Z,14.33
2019-03-20T18:16:30.302Z,14.63
2019-03-20T18:19:01.980Z,14.67
2019-03-20T18:21:35.105Z,13.87
2019-03-20T18:24:07.269Z,12.63
2019-03-20T18:26:38.938Z,12.17
2019-03-20T18:29:10.756Z,11.87
2019-03-20T18:31:46.240Z,11.17
2019-03-20T18:34:15.692Z,12.70
2019-03-20T18:36:47.011Z,11.73
2019-03-20T18:39:20.586Z,11.13
2019-03-20T18:41:57.728Z,10.17
2019-03-20T18:44:28.431Z,11.03
2019-03-20T18:47:03.725Z,10.17
2019-03-20T18:49:35.894Z,10.33
2019-03-20T18:52:07.924Z,9.10
2019-03-20T18:54:39.578Z,8.73
2019-03-20T18:57:11.632Z,7.90
2019-03-20T18:59:43.693Z,7.47
2019-03-20T19:02:15.414Z,7.33
2019-03-20T19:04:48.278Z,9.13
2019-03-20T19:07:20.062Z,8.33
2019-03-20T19:09:51.834Z,7.20
2019-03-20T19:12:23.619Z,7.37
2019-03-20T19:14:56.003Z,7.77
2019-03-20T19:17:28.679Z,7.40
2019-03-20T19:20:02.179Z,6.80
2019-03-20T19:22:35.559Z,6.80
2019-03-20T19:25:08.510Z,7.57
2019-03-20T19:27:39.872Z,7.53
2019-03-20T19:30:16.069Z,6.70
2019-03-20T19:32:47.469Z,6.40
2019-03-20T19:35:19.804Z,6.27
2019-03-20T19:37:52.340Z,6.37
2019-03-20T19:40:24.143Z,7.40
2019-03-20T19:42:55.461Z,6.97
2019-03-20T19:45:26.943Z,6.70
2019-03-20T19:47:58.409Z,7.47
2019-03-20T19:50:30.539Z,6.30
2019-03-20T19:53:03.434Z,6.60
2019-03-20T19:55:34.916Z,6.53
2019-03-20T19:58:10.004Z,6.50
2019-03-20T20:00:42.247Z,7.03
2019-03-20T20:03:16.155Z,6.27
2019-03-20T20:05:47.794Z,6.03
2019-03-20T20:08:19.456Z,7.37
2019-03-20T20:10:52.984Z,7.80
2019-03-20T20:13:25.105Z,7.30
2019-03-20T20:15:58.516Z,7.30
2019-03-20T20:18:30.323Z,6.97
2019-03-20T20:21:03.341Z,7.43
2019-03-20T20:23:37.130Z,7.60
2019-03-20T20:26:10.031Z,7.80
2019-03-20T20:28:45.005Z,6.63
2019-03-20T20:31:16.274Z,8.07
2019-03-20T20:33:47.949Z,7.60
2019-03-20T20:36:19.527Z,7.70
2019-03-20T20:38:52.596Z,7.50
2019-03-20T20:41:24.834Z,6.77
2019-03-20T20:43:56.507Z,7.57
2019-03-20T20:46:28.092Z,7.00
2019-03-20T20:49:00.514Z,6.30
2019-03-20T20:51:32.145Z,6.90
2019-03-20T20:54:03.599Z,6.53
2019-03-20T20:56:35.390Z,6.00
2019-03-20T20:59:07.452Z,6.67
2019-03-20T21:01:39.573Z,7.33
2019-03-20T21:04:11.804Z,6.57
2019-03-20T21:06:43.109Z,6.70
2019-03-20T21:09:14.747Z,7.50
2019-03-20T21:11:47.406Z,7.63
2019-03-20T21:14:20.152Z,7.33
2019-03-20T21:16:55.367Z,7.50
2019-03-20T21:19:37.996Z,8.27
2019-03-20T21:22:47.056Z,7.47
2019-03-20T21:25:21.053Z,8.73
2019-03-20T21:28:58.629Z,8.47
2019-03-20T21:31:56.718Z,8.30
2019-03-20T21:35:34.017Z,7.97
2019-03-20T21:38:08.842Z,8.53
2019-03-20T21:41:05.446Z,8.30
